sensor_id;sensor_type;location;lat;lon;timestamp;P1;durP1;ratioP1;P2;durP2;ratioP2
70126;SDS011;57491;42.694;23.314;2022-12-24T00:00:32;67.32;;;30.40;;
70126;SDS011;57491;42.694;23.314;2022-12-24T00:03:00;59.65;;;30.40;;
70126;SDS011;57491;42.694;23.314;2022-12-24T00:05:27;56.40;;;30.10;;
70126;SDS011;57491;42.694;23.314;2022-12-24T00:07:54;57.88;;;30.20;;
70126;SDS011;57491;42.694;23.314;2022-12-24T00:10:22;51.33;;;28.25;;
70126;SDS011;57491;42.694;23.314;2022-12-24T00:12:49;57.67;;;29.85;;
70126;SDS011;57491;42.694;23.314;2022-12-24T00:15:16;54.63;;;29.52;;
70126;SDS011;57491;42.694;23.314;2022-12-24T00:17:43;52.55;;;29.58;;
70126;SDS011;57491;42.694;23.314;2022-12-24T00:20:11;54.03;;;28.33;;
70126;SDS011;57491;42.694;23.314;2022-12-24T00:22:38;54.55;;;30.10;;
70126;SDS011;57491;42.694;23.314;2022-12-24T00:25:05;56.28;;;28.95;;
70126;SDS011;57491;42.694;23.314;2022-12-24T00:27:34;51.78;;;29.30;;
70126;SDS011;57491;42.694;23.314;2022-12-24T00:30:01;51.95;;;29.75;;
70126;SDS011;57491;42.694;23.314;2022-12-24T00:32:28;55.92;;;29.45;;
70126;SDS011;57491;42.694;23.314;2022-12-24T00:34:55;56.28;;;31.00;;
70126;SDS011;57491;42.694;23.314;2022-12-24T00:37:22;57.47;;;30.38;;
70126;SDS011;57491;42.694;23.314;2022-12-24T00:39:50;60.93;;;30.67;;
70126;SDS011;57491;42.694;23.314;2022-12-24T00:42:17;58.15;;;31.15;;
70126;SDS011;57491;42.694;23.314;2022-12-24T00:44:45;57.20;;;30.45;;
70126;SDS011;57491;42.694;23.314;2022-12-24T00:47:12;57.47;;;32.20;;
70126;SDS011;57491;42.694;23.314;2022-12-24T00:49:39;67.88;;;33.92;;
70126;SDS011;57491;42.694;23.314;2022-12-24T00:52:06;61.47;;;32.28;;
70126;SDS011;57491;42.694;23.314;2022-12-24T00:54:33;57.15;;;32.28;;
70126;SDS011;57491;42.694;23.314;2022-12-24T00:57:01;62.60;;;35.07;;
70126;SDS011;57491;42.694;23.314;2022-12-24T00:59:28;64.72;;;35.20;;
70126;SDS011;57491;42.694;23.314;2022-12-24T01:01:56;65.63;;;34.63;;
70126;SDS011;57491;42.694;23.314;2022-12-24T01:04:23;87.68;;;44.38;;
70126;SDS011;57491;42.694;23.314;2022-12-24T01:07:13;100.10;;;52.15;;
70126;SDS011;57491;42.694;23.314;2022-12-24T01:09:40;119.65;;;61.40;;
70126;SDS011;57491;42.694;23.314;2022-12-24T01:12:07;135.00;;;71.10;;
70126;SDS011;57491;42.694;23.314;2022-12-24T01:14:35;151.40;;;82.40;;
70126;SDS011;57491;42.694;23.314;2022-12-24T01:17:03;159.68;;;89.30;;
70126;SDS011;57491;42.694;23.314;2022-12-24T01:19:30;163.30;;;86.18;;
70126;SDS011;57491;42.694;23.314;2022-12-24T01:21:57;165.88;;;87.57;;
70126;SDS011;57491;42.694;23.314;2022-12-24T01:24:24;154.40;;;81.10;;
70126;SDS011;57491;42.694;23.314;2022-12-24T01:26:51;145.75;;;78.95;;
70126;SDS011;57491;42.694;23.314;2022-12-24T01:29:19;142.55;;;73.80;;
70126;SDS011;57491;42.694;23.314;2022-12-24T01:31:46;130.85;;;67.60;;
70126;SDS011;57491;42.694;23.314;2022-12-24T01:34:15;132.65;;;67.15;;
70126;SDS011;57491;42.694;23.314;2022-12-24T01:36:42;127.63;;;63.70;;
70126;SDS011;57491;42.694;23.314;2022-12-24T01:39:09;123.57;;;63.47;;
70126;SDS011;57491;42.694;23.314;2022-12-24T01:41:36;129.00;;;64.20;;
70126;SDS011;57491;42.694;23.314;2022-12-24T01:44:22;129.43;;;71.88;;
70126;SDS011;57491;42.694;23.314;2022-12-24T01:46:52;129.88;;;71.97;;
70126;SDS011;57491;42.694;23.314;2022-12-24T01:49:24;135.88;;;71.30;;
70126;SDS011;57491;42.694;23.314;2022-12-24T01:51:52;140.80;;;72.55;;
70126;SDS011;57491;42.694;23.314;2022-12-24T01:54:24;137.43;;;69.50;;
70126;SDS011;57491;42.694;23.314;2022-12-24T01:56:57;134.20;;;71.53;;
70126;SDS011;57491;42.694;23.314;2022-12-24T01:59:28;130.52;;;68.90;;
70126;SDS011;57491;42.694;23.314;2022-12-24T02:01:55;135.27;;;67.70;;
70126;SDS011;57491;42.694;23.314;2022-12-24T02:04:27;123.90;;;64.78;;
70126;SDS011;57491;42.694;23.314;2022-12-24T02:06:59;123.97;;;62.83;;
70126;SDS011;57491;42.694;23.314;2022-12-24T02:09:26;122.73;;;68.07;;
70126;SDS011;57491;42.694;23.314;2022-12-24T02:11:53;126.25;;;62.85;;
70126;SDS011;57491;42.694;23.314;2022-12-24T02:14:21;117.85;;;60.03;;
70126;SDS011;57491;42.694;23.314;2022-12-24T02:16:53;120.55;;;58.88;;
70126;SDS011;57491;42.694;23.314;2022-12-24T02:22:30;123.95;;;60.22;;
70126;SDS011;57491;42.694;23.314;2022-12-24T02:25:12;112.55;;;53.80;;
70126;SDS011;57491;42.694;23.314;2022-12-24T02:27:54;95.70;;;49.30;;
70126;SDS011;57491;42.694;23.314;2022-12-24T02:30:25;102.43;;;48.67;;
70126;SDS011;57491;42.694;23.314;2022-12-24T02:33:02;87.57;;;43.55;;
70126;SDS011;57491;42.694;23.314;2022-12-24T02:35:41;87.88;;;42.83;;
70126;SDS011;57491;42.694;23.314;2022-12-24T02:38:15;80.68;;;41.97;;
70126;SDS011;57491;42.694;23.314;2022-12-24T02:40:49;75.32;;;40.80;;
70126;SDS011;57491;42.694;23.314;2022-12-24T02:43:19;78.65;;;40.80;;
70126;SDS011;57491;42.694;23.314;2022-12-24T02:45:52;81.38;;;41.03;;
70126;SDS011;57491;42.694;23.314;2022-12-24T02:48:21;83.03;;;41.17;;
70126;SDS011;57491;42.694;23.314;2022-12-24T02:50:55;77.90;;;37.88;;
70126;SDS011;57491;42.694;23.314;2022-12-24T02:53:24;68.88;;;36.95;;
70126;SDS011;57491;42.694;23.314;2022-12-24T02:55:55;68.07;;;37.20;;
70126;SDS011;57491;42.694;23.314;2022-12-24T02:58:34;69.85;;;35.42;;
70126;SDS011;57491;42.694;23.314;2022-12-24T03:01:11;69.05;;;35.97;;
70126;SDS011;57491;42.694;23.314;2022-12-24T03:03:47;81.55;;;41.35;;
70126;SDS011;57491;42.694;23.314;2022-12-24T03:06:29;84.00;;;42.20;;
70126;SDS011;57491;42.694;23.314;2022-12-24T03:09:06;107.18;;;54.30;;
70126;SDS011;57491;42.694;23.314;2022-12-24T03:11:39;125.85;;;69.60;;
70126;SDS011;57491;42.694;23.314;2022-12-24T03:14:14;136.13;;;64.25;;
70126;SDS011;57491;42.694;23.314;2022-12-24T03:16:44;125.10;;;60.42;;
70126;SDS011;57491;42.694;23.314;2022-12-24T03:19:11;109.78;;;56.13;;
70126;SDS011;57491;42.694;23.314;2022-12-24T03:21:39;108.55;;;53.97;;
70126;SDS011;57491;42.694;23.314;2022-12-24T03:24:09;104.63;;;52.17;;
70126;SDS011;57491;42.694;23.314;2022-12-24T03:26:36;100.75;;;51.85;;
70126;SDS011;57491;42.694;23.314;2022-12-24T03:29:05;105.22;;;52.72;;
70126;SDS011;57491;42.694;23.314;2022-12-24T03:31:40;103.68;;;52.28;;
70126;SDS011;57491;42.694;23.314;2022-12-24T03:34:10;110.00;;;51.97;;
70126;SDS011;57491;42.694;23.314;2022-12-24T03:36:38;103.85;;;53.90;;
70126;SDS011;57491;42.694;23.314;2022-12-24T03:39:05;97.30;;;48.97;;
70126;SDS011;57491;42.694;23.314;2022-12-24T03:41:33;98.07;;;49.45;;
70126;SDS011;57491;42.694;23.314;2022-12-24T03:44:00;97.95;;;50.78;;
70126;SDS011;57491;42.694;23.314;2022-12-24T03:46:27;106.10;;;51.87;;
70126;SDS011;57491;42.694;23.314;2022-12-24T03:48:54;105.88;;;50.90;;
70126;SDS011;57491;42.694;23.314;2022-12-24T03:51:23;101.18;;;50.15;;
70126;SDS011;57491;42.694;23.314;2022-12-24T03:53:51;97.65;;;49.65;;
70126;SDS011;57491;42.694;23.314;2022-12-24T03:56:19;98.70;;;48.80;;
70126;SDS011;57491;42.694;23.314;2022-12-24T03:58:46;88.78;;;44.35;;
70126;SDS011;57491;42.694;23.314;2022-12-24T04:01:13;86.00;;;45.63;;
70126;SDS011;57491;42.694;23.314;2022-12-24T04:03:41;85.80;;;46.03;;
70126;SDS011;57491;42.694;23.314;2022-12-24T04:06:09;93.78;;;44.92;;
70126;SDS011;57491;42.694;23.314;2022-12-24T04:08:39;96.63;;;48.22;;
70126;SDS011;57491;42.694;23.314;2022-12-24T04:11:08;93.45;;;46.95;;
70126;SDS011;57491;42.694;23.314;2022-12-24T04:13:38;106.38;;;53.47;;
70126;SDS011;57491;42.694;23.314;2022-12-24T04:16:06;103.80;;;51.88;;
70126;SDS011;57491;42.694;23.314;2022-12-24T04:18:34;100.47;;;50.50;;
70126;SDS011;57491;42.694;23.314;2022-12-24T04:21:02;103.80;;;52.63;;
70126;SDS011;57491;42.694;23.314;2022-12-24T04:23:29;102.70;;;49.90;;
70126;SDS011;57491;42.694;23.314;2022-12-24T04:25:59;103.78;;;50.85;;
70126;SDS011;57491;42.694;23.314;2022-12-24T04:28:27;92.90;;;49.03;;
70126;SDS011;57491;42.694;23.314;2022-12-24T04:30:56;95.10;;;47.85;;
70126;SDS011;57491;42.694;23.314;2022-12-24T04:33:24;94.00;;;46.67;;
70126;SDS011;57491;42.694;23.314;2022-12-24T04:35:51;90.22;;;47.67;;
70126;SDS011;57491;42.694;23.314;2022-12-24T04:38:18;84.57;;;44.77;;
70126;SDS011;57491;42.694;23.314;2022-12-24T04:40:46;76.28;;;39.22;;
70126;SDS011;57491;42.694;23.314;2022-12-24T04:43:14;71.57;;;37.20;;
70126;SDS011;57491;42.694;23.314;2022-12-24T04:45:41;61.00;;;31.55;;
70126;SDS011;57491;42.694;23.314;2022-12-24T04:48:08;66.05;;;30.73;;
70126;SDS011;57491;42.694;23.314;2022-12-24T04:50:35;65.55;;;32.28;;
70126;SDS011;57491;42.694;23.314;2022-12-24T04:53:02;69.03;;;31.33;;
70126;SDS011;57491;42.694;23.314;2022-12-24T04:55:29;59.35;;;31.83;;
70126;SDS011;57491;42.694;23.314;2022-12-24T04:57:57;57.03;;;30.88;;
70126;SDS011;57491;42.694;23.314;2022-12-24T05:00:25;63.38;;;33.13;;
70126;SDS011;57491;42.694;23.314;2022-12-24T05:02:52;66.57;;;33.78;;
70126;SDS011;57491;42.694;23.314;2022-12-24T05:05:19;62.22;;;32.17;;
70126;SDS011;57491;42.694;23.314;2022-12-24T05:07:46;60.05;;;32.63;;
70126;SDS011;57491;42.694;23.314;2022-12-24T05:10:13;64.22;;;31.60;;
70126;SDS011;57491;42.694;23.314;2022-12-24T05:12:41;62.07;;;33.67;;
70126;SDS011;57491;42.694;23.314;2022-12-24T05:15:08;67.28;;;35.90;;
70126;SDS011;57491;42.694;23.314;2022-12-24T05:17:36;80.93;;;39.17;;
70126;SDS011;57491;42.694;23.314;2022-12-24T05:20:04;91.78;;;44.92;;
70126;SDS011;57491;42.694;23.314;2022-12-24T05:22:32;84.97;;;44.13;;
70126;SDS011;57491;42.694;23.314;2022-12-24T05:25:17;83.25;;;42.17;;
70126;SDS011;57491;42.694;23.314;2022-12-24T05:28:01;80.90;;;42.13;;
70126;SDS011;57491;42.694;23.314;2022-12-24T05:30:28;87.57;;;43.67;;
70126;SDS011;57491;42.694;23.314;2022-12-24T05:32:57;86.10;;;43.17;;
70126;SDS011;57491;42.694;23.314;2022-12-24T05:35:24;87.82;;;43.75;;
70126;SDS011;57491;42.694;23.314;2022-12-24T05:37:51;87.63;;;43.00;;
70126;SDS011;57491;42.694;23.314;2022-12-24T05:40:18;84.28;;;44.95;;
70126;SDS011;57491;42.694;23.314;2022-12-24T05:42:45;82.60;;;42.67;;
70126;SDS011;57491;42.694;23.314;2022-12-24T05:45:12;84.00;;;45.97;;
70126;SDS011;57491;42.694;23.314;2022-12-24T05:47:39;84.20;;;44.93;;
70126;SDS011;57491;42.694;23.314;2022-12-24T05:50:09;93.97;;;47.90;;
70126;SDS011;57491;42.694;23.314;2022-12-24T05:52:36;84.25;;;45.05;;
70126;SDS011;57491;42.694;23.314;2022-12-24T05:55:03;87.70;;;46.85;;
70126;SDS011;57491;42.694;23.314;2022-12-24T05:57:33;98.40;;;49.17;;
70126;SDS011;57491;42.694;23.314;2022-12-24T06:00:00;95.75;;;51.35;;
70126;SDS011;57491;42.694;23.314;2022-12-24T06:02:27;98.87;;;48.47;;
70126;SDS011;57491;42.694;23.314;2022-12-24T06:04:54;91.60;;;48.58;;
70126;SDS011;57491;42.694;23.314;2022-12-24T06:07:23;97.10;;;48.67;;
70126;SDS011;57491;42.694;23.314;2022-12-24T06:09:50;97.80;;;48.00;;
70126;SDS011;57491;42.694;23.314;2022-12-24T06:12:17;92.72;;;45.80;;
70126;SDS011;57491;42.694;23.314;2022-12-24T06:14:44;100.32;;;48.67;;
70126;SDS011;57491;42.694;23.314;2022-12-24T06:17:11;98.85;;;47.58;;
70126;SDS011;57491;42.694;23.314;2022-12-24T06:19:39;86.22;;;46.25;;
70126;SDS011;57491;42.694;23.314;2022-12-24T06:22:06;99.05;;;48.55;;
70126;SDS011;57491;42.694;23.314;2022-12-24T06:24:34;90.15;;;45.60;;
70126;SDS011;57491;42.694;23.314;2022-12-24T06:27:01;95.80;;;50.20;;
70126;SDS011;57491;42.694;23.314;2022-12-24T06:29:28;97.22;;;50.30;;
70126;SDS011;57491;42.694;23.314;2022-12-24T06:31:56;94.28;;;47.72;;
70126;SDS011;57491;42.694;23.314;2022-12-24T06:34:23;86.60;;;47.67;;
70126;SDS011;57491;42.694;23.314;2022-12-24T06:36:50;98.63;;;50.15;;
70126;SDS011;57491;42.694;23.314;2022-12-24T06:39:17;92.60;;;49.80;;
70126;SDS011;57491;42.694;23.314;2022-12-24T06:41:45;93.20;;;46.95;;
70126;SDS011;57491;42.694;23.314;2022-12-24T06:44:13;97.07;;;46.85;;
70126;SDS011;57491;42.694;23.314;2022-12-24T06:46:40;93.43;;;49.47;;
70126;SDS011;57491;42.694;23.314;2022-12-24T06:49:07;103.93;;;51.43;;
70126;SDS011;57491;42.694;23.314;2022-12-24T06:51:34;100.18;;;49.78;;
70126;SDS011;57491;42.694;23.314;2022-12-24T06:54:01;95.72;;;49.60;;
70126;SDS011;57491;42.694;23.314;2022-12-24T06:56:28;100.32;;;52.10;;
70126;SDS011;57491;42.694;23.314;2022-12-24T06:58:57;97.60;;;50.17;;
70126;SDS011;57491;42.694;23.314;2022-12-24T07:01:24;109.07;;;52.53;;
70126;SDS011;57491;42.694;23.314;2022-12-24T07:03:51;105.43;;;51.92;;
70126;SDS011;57491;42.694;23.314;2022-12-24T07:06:19;101.57;;;51.53;;
70126;SDS011;57491;42.694;23.314;2022-12-24T07:08:49;101.78;;;53.25;;
70126;SDS011;57491;42.694;23.314;2022-12-24T07:11:17;112.45;;;54.22;;
70126;SDS011;57491;42.694;23.314;2022-12-24T07:13:44;108.00;;;53.33;;
70126;SDS011;57491;42.694;23.314;2022-12-24T07:16:13;99.97;;;51.83;;
70126;SDS011;57491;42.694;23.314;2022-12-24T07:18:41;105.53;;;53.55;;
70126;SDS011;57491;42.694;23.314;2022-12-24T07:21:08;102.85;;;54.15;;
70126;SDS011;57491;42.694;23.314;2022-12-24T07:23:35;109.23;;;53.97;;
70126;SDS011;57491;42.694;23.314;2022-12-24T07:26:03;96.30;;;50.75;;
70126;SDS011;57491;42.694;23.314;2022-12-24T07:30:58;92.30;;;51.38;;
70126;SDS011;57491;42.694;23.314;2022-12-24T07:33:27;96.03;;;50.55;;
70126;SDS011;57491;42.694;23.314;2022-12-24T07:35:57;103.55;;;51.05;;
70126;SDS011;57491;42.694;23.314;2022-12-24T07:38:26;104.22;;;51.58;;
70126;SDS011;57491;42.694;23.314;2022-12-24T07:40:56;103.13;;;51.77;;
70126;SDS011;57491;42.694;23.314;2022-12-24T07:43:23;99.70;;;52.42;;
70126;SDS011;57491;42.694;23.314;2022-12-24T07:45:53;89.18;;;48.22;;
70126;SDS011;57491;42.694;23.314;2022-12-24T07:48:21;89.47;;;45.20;;
70126;SDS011;57491;42.694;23.314;2022-12-24T07:50:49;94.90;;;50.70;;
70126;SDS011;57491;42.694;23.314;2022-12-24T07:53:17;90.10;;;48.22;;
70126;SDS011;57491;42.694;23.314;2022-12-24T07:55:44;84.60;;;44.87;;
70126;SDS011;57491;42.694;23.314;2022-12-24T07:58:12;96.93;;;50.13;;
70126;SDS011;57491;42.694;23.314;2022-12-24T08:00:40;99.20;;;54.88;;
70126;SDS011;57491;42.694;23.314;2022-12-24T08:03:08;98.47;;;54.08;;
70126;SDS011;57491;42.694;23.314;2022-12-24T08:05:41;97.45;;;54.40;;
70126;SDS011;57491;42.694;23.314;2022-12-24T08:08:10;94.95;;;53.67;;
70126;SDS011;57491;42.694;23.314;2022-12-24T08:10:37;95.50;;;53.45;;
70126;SDS011;57491;42.694;23.314;2022-12-24T08:13:05;105.90;;;57.33;;
70126;SDS011;57491;42.694;23.314;2022-12-24T08:15:32;101.97;;;58.17;;
70126;SDS011;57491;42.694;23.314;2022-12-24T08:17:59;104.03;;;58.47;;
70126;SDS011;57491;42.694;23.314;2022-12-24T08:20:26;112.40;;;57.80;;
70126;SDS011;57491;42.694;23.314;2022-12-24T08:22:54;104.00;;;54.45;;
70126;SDS011;57491;42.694;23.314;2022-12-24T08:27:50;104.20;;;58.20;;
70126;SDS011;57491;42.694;23.314;2022-12-24T08:30:17;107.68;;;56.70;;
70126;SDS011;57491;42.694;23.314;2022-12-24T08:32:44;99.88;;;52.40;;
70126;SDS011;57491;42.694;23.314;2022-12-24T08:35:11;98.47;;;52.90;;
70126;SDS011;57491;42.694;23.314;2022-12-24T08:37:38;96.28;;;52.90;;
70126;SDS011;57491;42.694;23.314;2022-12-24T08:40:05;111.18;;;58.83;;
70126;SDS011;57491;42.694;23.314;2022-12-24T08:42:35;111.38;;;59.38;;
70126;SDS011;57491;42.694;23.314;2022-12-24T08:45:02;106.95;;;59.25;;
70126;SDS011;57491;42.694;23.314;2022-12-24T08:47:29;117.45;;;60.88;;
70126;SDS011;57491;42.694;23.314;2022-12-24T08:49:56;117.68;;;61.75;;
70126;SDS011;57491;42.694;23.314;2022-12-24T08:52:23;112.72;;;59.30;;
70126;SDS011;57491;42.694;23.314;2022-12-24T08:54:51;106.15;;;59.35;;
70126;SDS011;57491;42.694;23.314;2022-12-24T08:57:18;105.07;;;59.30;;
70126;SDS011;57491;42.694;23.314;2022-12-24T08:59:46;108.73;;;59.87;;
70126;SDS011;57491;42.694;23.314;2022-12-24T09:02:14;109.38;;;59.88;;
70126;SDS011;57491;42.694;23.314;2022-12-24T09:04:41;112.50;;;61.72;;
70126;SDS011;57491;42.694;23.314;2022-12-24T09:07:08;110.93;;;59.88;;
70126;SDS011;57491;42.694;23.314;2022-12-24T09:09:36;112.55;;;60.30;;
70126;SDS011;57491;42.694;23.314;2022-12-24T09:12:03;111.50;;;60.30;;
70126;SDS011;57491;42.694;23.314;2022-12-24T09:16:59;101.63;;;55.95;;
70126;SDS011;57491;42.694;23.314;2022-12-24T09:19:26;103.22;;;59.88;;
70126;SDS011;57491;42.694;23.314;2022-12-24T09:21:53;102.35;;;57.58;;
70126;SDS011;57491;42.694;23.314;2022-12-24T09:24:20;105.95;;;55.83;;
70126;SDS011;57491;42.694;23.314;2022-12-24T09:26:47;94.75;;;56.03;;
70126;SDS011;57491;42.694;23.314;2022-12-24T09:29:14;102.22;;;57.15;;
70126;SDS011;57491;42.694;23.314;2022-12-24T09:31:42;111.07;;;66.75;;
70126;SDS011;57491;42.694;23.314;2022-12-24T09:34:10;115.77;;;66.03;;
70126;SDS011;57491;42.694;23.314;2022-12-24T09:36:38;122.28;;;70.07;;
70126;SDS011;57491;42.694;23.314;2022-12-24T09:39:05;116.03;;;65.72;;
70126;SDS011;57491;42.694;23.314;2022-12-24T09:41:36;120.57;;;65.72;;
70126;SDS011;57491;42.694;23.314;2022-12-24T09:44:14;120.80;;;63.58;;
70126;SDS011;57491;42.694;23.314;2022-12-24T09:46:48;114.10;;;60.80;;
70126;SDS011;57491;42.694;23.314;2022-12-24T09:49:19;107.68;;;61.13;;
70126;SDS011;57491;42.694;23.314;2022-12-24T09:51:50;104.28;;;55.58;;
70126;SDS011;57491;42.694;23.314;2022-12-24T09:54:22;104.15;;;59.25;;
70126;SDS011;57491;42.694;23.314;2022-12-24T09:56:51;99.63;;;57.25;;
70126;SDS011;57491;42.694;23.314;2022-12-24T09:59:23;98.80;;;55.17;;
70126;SDS011;57491;42.694;23.314;2022-12-24T10:01:52;92.47;;;52.90;;
70126;SDS011;57491;42.694;23.314;2022-12-24T10:04:22;88.22;;;51.25;;
70126;SDS011;57491;42.694;23.314;2022-12-24T10:06:56;95.07;;;52.95;;
70126;SDS011;57491;42.694;23.314;2022-12-24T10:09:32;98.63;;;53.53;;
70126;SDS011;57491;42.694;23.314;2022-12-24T10:12:07;90.85;;;49.75;;
70126;SDS011;57491;42.694;23.314;2022-12-24T10:14:48;91.22;;;50.05;;
70126;SDS011;57491;42.694;23.314;2022-12-24T10:17:28;91.43;;;52.00;;
70126;SDS011;57491;42.694;23.314;2022-12-24T10:20:10;96.82;;;54.05;;
70126;SDS011;57491;42.694;23.314;2022-12-24T10:22:52;97.85;;;55.45;;
70126;SDS011;57491;42.694;23.314;2022-12-24T10:25:27;100.53;;;56.45;;
70126;SDS011;57491;42.694;23.314;2022-12-24T10:27:59;99.18;;;56.17;;
70126;SDS011;57491;42.694;23.314;2022-12-24T10:30:28;102.50;;;55.67;;
70126;SDS011;57491;42.694;23.314;2022-12-24T10:32:56;96.35;;;51.63;;
70126;SDS011;57491;42.694;23.314;2022-12-24T10:35:25;94.28;;;54.20;;
70126;SDS011;57491;42.694;23.314;2022-12-24T10:37:56;92.65;;;53.40;;
70126;SDS011;57491;42.694;23.314;2022-12-24T10:40:26;91.75;;;51.15;;
70126;SDS011;57491;42.694;23.314;2022-12-24T10:42:57;86.65;;;50.67;;
70126;SDS011;57491;42.694;23.314;2022-12-24T10:45:26;78.18;;;45.38;;
70126;SDS011;57491;42.694;23.314;2022-12-24T10:48:03;74.82;;;43.92;;
70126;SDS011;57491;42.694;23.314;2022-12-24T10:50:38;75.78;;;43.80;;
70126;SDS011;57491;42.694;23.314;2022-12-24T10:53:12;76.05;;;44.35;;
70126;SDS011;57491;42.694;23.314;2022-12-24T10:55:43;78.45;;;45.53;;
70126;SDS011;57491;42.694;23.314;2022-12-24T10:58:12;76.15;;;44.75;;
70126;SDS011;57491;42.694;23.314;2022-12-24T11:00:42;79.00;;;44.05;;
70126;SDS011;57491;42.694;23.314;2022-12-24T11:03:20;90.70;;;46.42;;
70126;SDS011;57491;42.694;23.314;2022-12-24T11:08:45;77.85;;;42.38;;
70126;SDS011;57491;42.694;23.314;2022-12-24T11:11:14;76.57;;;44.40;;
70126;SDS011;57491;42.694;23.314;2022-12-24T11:13:43;83.60;;;45.08;;
70126;SDS011;57491;42.694;23.314;2022-12-24T11:16:18;73.18;;;42.60;;
70126;SDS011;57491;42.694;23.314;2022-12-24T11:18:49;70.97;;;41.55;;
70126;SDS011;57491;42.694;23.314;2022-12-24T11:21:20;72.25;;;40.83;;
70126;SDS011;57491;42.694;23.314;2022-12-24T11:23:50;81.93;;;41.83;;
70126;SDS011;57491;42.694;23.314;2022-12-24T11:26:21;82.18;;;44.60;;
70126;SDS011;57491;42.694;23.314;2022-12-24T11:31:40;77.63;;;45.97;;
70126;SDS011;57491;42.694;23.314;2022-12-24T11:34:26;90.40;;;50.65;;
70126;SDS011;57491;42.694;23.314;2022-12-24T11:37:06;79.73;;;46.00;;
70126;SDS011;57491;42.694;23.314;2022-12-24T11:39:40;81.15;;;46.40;;
70126;SDS011;57491;42.694;23.314;2022-12-24T11:42:21;69.13;;;42.75;;
70126;SDS011;57491;42.694;23.314;2022-12-24T11:44:53;61.83;;;39.03;;
70126;SDS011;57491;42.694;23.314;2022-12-24T11:47:30;51.60;;;33.00;;
70126;SDS011;57491;42.694;23.314;2022-12-24T11:52:50;47.05;;;30.85;;
70126;SDS011;57491;42.694;23.314;2022-12-24T11:55:22;41.55;;;28.10;;
70126;SDS011;57491;42.694;23.314;2022-12-24T11:57:59;44.33;;;28.98;;
70126;SDS011;57491;42.694;23.314;2022-12-24T12:00:31;54.75;;;32.83;;
70126;SDS011;57491;42.694;23.314;2022-12-24T12:02:58;49.47;;;31.30;;
70126;SDS011;57491;42.694;23.314;2022-12-24T12:05:28;55.90;;;34.17;;
70126;SDS011;57491;42.694;23.314;2022-12-24T12:08:06;55.38;;;33.47;;
70126;SDS011;57491;42.694;23.314;2022-12-24T12:10:39;49.50;;;32.60;;
70126;SDS011;57491;42.694;23.314;2022-12-24T12:13:10;51.85;;;33.50;;
70126;SDS011;57491;42.694;23.314;2022-12-24T12:15:39;50.67;;;33.00;;
70126;SDS011;57491;42.694;23.314;2022-12-24T12:18:11;50.28;;;33.05;;
70126;SDS011;57491;42.694;23.314;2022-12-24T12:20:41;55.08;;;34.17;;
70126;SDS011;57491;42.694;23.314;2022-12-24T12:23:14;58.63;;;34.35;;
70126;SDS011;57491;42.694;23.314;2022-12-24T12:25:47;53.22;;;33.75;;
70126;SDS011;57491;42.694;23.314;2022-12-24T12:28:19;58.05;;;36.47;;
70126;SDS011;57491;42.694;23.314;2022-12-24T12:30:54;59.63;;;36.83;;
70126;SDS011;57491;42.694;23.314;2022-12-24T12:33:30;55.85;;;35.38;;
70126;SDS011;57491;42.694;23.314;2022-12-24T12:36:02;58.33;;;36.00;;
70126;SDS011;57491;42.694;23.314;2022-12-24T12:38:32;58.78;;;33.97;;
70126;SDS011;57491;42.694;23.314;2022-12-24T12:41:00;54.30;;;34.05;;
70126;SDS011;57491;42.694;23.314;2022-12-24T12:43:49;64.72;;;41.75;;
70126;SDS011;57491;42.694;23.314;2022-12-24T12:46:32;59.03;;;36.85;;
70126;SDS011;57491;42.694;23.314;2022-12-24T12:49:17;63.45;;;38.88;;
70126;SDS011;57491;42.694;23.314;2022-12-24T12:51:54;60.40;;;37.60;;
70126;SDS011;57491;42.694;23.314;2022-12-24T12:54:36;62.47;;;38.60;;
70126;SDS011;57491;42.694;23.314;2022-12-24T12:57:14;68.63;;;41.97;;
70126;SDS011;57491;42.694;23.314;2022-12-24T12:59:47;77.63;;;46.20;;
70126;SDS011;57491;42.694;23.314;2022-12-24T13:02:24;78.18;;;45.92;;
70126;SDS011;57491;42.694;23.314;2022-12-24T13:08:16;90.63;;;50.85;;
70126;SDS011;57491;42.694;23.314;2022-12-24T13:11:03;90.20;;;51.42;;
70126;SDS011;57491;42.694;23.314;2022-12-24T13:13:43;95.80;;;56.15;;
70126;SDS011;57491;42.694;23.314;2022-12-24T13:19:37;105.32;;;55.58;;
70126;SDS011;57491;42.694;23.314;2022-12-24T13:22:19;98.07;;;53.63;;
70126;SDS011;57491;42.694;23.314;2022-12-24T13:24:48;92.20;;;52.47;;
70126;SDS011;57491;42.694;23.314;2022-12-24T13:27:19;95.07;;;54.00;;
70126;SDS011;57491;42.694;23.314;2022-12-24T13:29:53;96.47;;;54.17;;
70126;SDS011;57491;42.694;23.314;2022-12-24T13:32:36;96.90;;;56.10;;
70126;SDS011;57491;42.694;23.314;2022-12-24T13:44:02;98.07;;;52.33;;
70126;SDS011;57491;42.694;23.314;2022-12-24T13:46:45;91.53;;;52.15;;
70126;SDS011;57491;42.694;23.314;2022-12-24T13:49:15;102.18;;;54.28;;
70126;SDS011;57491;42.694;23.314;2022-12-24T13:51:45;94.68;;;52.88;;
70126;SDS011;57491;42.694;23.314;2022-12-24T13:54:13;99.25;;;53.00;;
70126;SDS011;57491;42.694;23.314;2022-12-24T13:56:43;95.70;;;51.75;;
70126;SDS011;57491;42.694;23.314;2022-12-24T13:59:19;98.13;;;53.95;;
70126;SDS011;57491;42.694;23.314;2022-12-24T14:01:53;97.95;;;52.78;;
70126;SDS011;57491;42.694;23.314;2022-12-24T14:04:23;99.75;;;54.53;;
70126;SDS011;57491;42.694;23.314;2022-12-24T14:06:52;98.00;;;55.15;;
70126;SDS011;57491;42.694;23.314;2022-12-24T14:09:23;97.40;;;55.47;;
70126;SDS011;57491;42.694;23.314;2022-12-24T14:14:43;97.55;;;54.47;;
70126;SDS011;57491;42.694;23.314;2022-12-24T14:17:13;97.18;;;54.50;;
70126;SDS011;57491;42.694;23.314;2022-12-24T14:19:49;96.35;;;51.67;;
70126;SDS011;57491;42.694;23.314;2022-12-24T14:22:22;98.85;;;55.42;;
70126;SDS011;57491;42.694;23.314;2022-12-24T14:24:54;98.60;;;54.95;;
70126;SDS011;57491;42.694;23.314;2022-12-24T14:27:24;105.65;;;56.95;;
70126;SDS011;57491;42.694;23.314;2022-12-24T14:30:00;102.20;;;56.08;;
70126;SDS011;57491;42.694;23.314;2022-12-24T14:32:34;103.47;;;58.35;;
70126;SDS011;57491;42.694;23.314;2022-12-24T14:35:06;103.88;;;57.88;;
70126;SDS011;57491;42.694;23.314;2022-12-24T14:37:40;110.90;;;55.93;;
70126;SDS011;57491;42.694;23.314;2022-12-24T14:40:14;90.60;;;50.75;;
70126;SDS011;57491;42.694;23.314;2022-12-24T14:42:46;91.00;;;52.22;;
70126;SDS011;57491;42.694;23.314;2022-12-24T14:45:24;94.43;;;52.67;;
70126;SDS011;57491;42.694;23.314;2022-12-24T14:47:58;96.00;;;53.05;;
70126;SDS011;57491;42.694;23.314;2022-12-24T14:53:29;98.20;;;54.33;;
70126;SDS011;57491;42.694;23.314;2022-12-24T14:56:14;91.07;;;49.85;;
70126;SDS011;57491;42.694;23.314;2022-12-24T14:58:42;86.03;;;48.53;;
70126;SDS011;57491;42.694;23.314;2022-12-24T15:01:19;80.05;;;45.55;;